sensor_id;sensor_type;location;lat;lon;timestamp;P1;durP1;ratioP1;P2;durP2;ratioP2
36185;SDS011;22228;53.222;7.446;2022-08-21T00:02:01;7.10;;;6.40;;
36185;SDS011;22228;53.222;7.446;2022-08-21T00:04:22;9.07;;;6.90;;
36185;SDS011;22228;53.222;7.446;2022-08-21T00:06:42;11.13;;;6.90;;
36185;SDS011;22228;53.222;7.446;2022-08-21T00:09:05;10.27;;;7.40;;
36185;SDS011;22228;53.222;7.446;2022-08-21T00:11:28;10.27;;;7.07;;
36185;SDS011;22228;53.222;7.446;2022-08-21T00:13:48;8.83;;;6.77;;
36185;SDS011;22228;53.222;7.446;2022-08-21T00:16:09;9.33;;;7.47;;
36185;SDS011;22228;53.222;7.446;2022-08-21T00:18:29;8.50;;;7.17;;
36185;SDS011;22228;53.222;7.446;2022-08-21T00:20:50;13.83;;;8.07;;
36185;SDS011;22228;53.222;7.446;2022-08-21T00:23:10;9.47;;;8.03;;
36185;SDS011;22228;53.222;7.446;2022-08-21T00:25:33;8.33;;;7.53;;
36185;SDS011;22228;53.222;7.446;2022-08-21T00:27:53;7.90;;;7.20;;
36185;SDS011;22228;53.222;7.446;2022-08-21T00:30:15;11.90;;;7.67;;
36185;SDS011;22228;53.222;7.446;2022-08-21T00:32:37;11.20;;;7.90;;
36185;SDS011;22228;53.222;7.446;2022-08-21T00:34:59;9.20;;;7.50;;
36185;SDS011;22228;53.222;7.446;2022-08-21T00:37:20;10.20;;;7.33;;
36185;SDS011;22228;53.222;7.446;2022-08-21T00:39:40;10.63;;;7.50;;
36185;SDS011;22228;53.222;7.446;2022-08-21T00:42:02;7.83;;;6.93;;
36185;SDS011;22228;53.222;7.446;2022-08-21T00:44:23;11.47;;;6.60;;
36185;SDS011;22228;53.222;7.446;2022-08-21T00:46:44;6.27;;;5.77;;
36185;SDS011;22228;53.222;7.446;2022-08-21T00:49:05;7.60;;;6.03;;
36185;SDS011;22228;53.222;7.446;2022-08-21T00:51:28;6.30;;;5.67;;
36185;SDS011;22228;53.222;7.446;2022-08-21T00:53:56;8.23;;;6.87;;
36185;SDS011;22228;53.222;7.446;2022-08-21T00:56:19;11.90;;;8.53;;
36185;SDS011;22228;53.222;7.446;2022-08-21T00:58:43;9.93;;;7.20;;
36185;SDS011;22228;53.222;7.446;2022-08-21T01:01:05;8.73;;;7.40;;
36185;SDS011;22228;53.222;7.446;2022-08-21T01:03:27;7.73;;;6.77;;
36185;SDS011;22228;53.222;7.446;2022-08-21T01:05:48;8.87;;;6.83;;
36185;SDS011;22228;53.222;7.446;2022-08-21T01:08:08;9.30;;;6.60;;
36185;SDS011;22228;53.222;7.446;2022-08-21T01:10:30;8.77;;;7.97;;
36185;SDS011;22228;53.222;7.446;2022-08-21T01:12:51;10.30;;;8.13;;
36185;SDS011;22228;53.222;7.446;2022-08-21T01:15:12;10.87;;;7.73;;
36185;SDS011;22228;53.222;7.446;2022-08-21T01:17:35;10.33;;;8.97;;
36185;SDS011;22228;53.222;7.446;2022-08-21T01:19:57;8.60;;;7.80;;
36185;SDS011;22228;53.222;7.446;2022-08-21T01:22:18;8.27;;;7.47;;
36185;SDS011;22228;53.222;7.446;2022-08-21T01:24:39;8.67;;;7.40;;
36185;SDS011;22228;53.222;7.446;2022-08-21T01:27:00;7.53;;;6.83;;
36185;SDS011;22228;53.222;7.446;2022-08-21T01:29:23;8.90;;;8.00;;
36185;SDS011;22228;53.222;7.446;2022-08-21T01:31:49;8.73;;;6.97;;
36185;SDS011;22228;53.222;7.446;2022-08-21T01:34:10;9.00;;;7.90;;
36185;SDS011;22228;53.222;7.446;2022-08-21T01:36:30;10.20;;;8.47;;
36185;SDS011;22228;53.222;7.446;2022-08-21T01:38:53;11.97;;;8.83;;
36185;SDS011;22228;53.222;7.446;2022-08-21T01:41:14;11.07;;;8.40;;
36185;SDS011;22228;53.222;7.446;2022-08-21T01:43:35;12.40;;;9.17;;
36185;SDS011;22228;53.222;7.446;2022-08-21T01:45:55;10.10;;;9.17;;
36185;SDS011;22228;53.222;7.446;2022-08-21T01:48:16;11.57;;;9.30;;
36185;SDS011;22228;53.222;7.446;2022-08-21T01:50:37;9.37;;;8.37;;
36185;SDS011;22228;53.222;7.446;2022-08-21T01:52:57;8.93;;;8.13;;
36185;SDS011;22228;53.222;7.446;2022-08-21T01:55:21;12.43;;;9.97;;
36185;SDS011;22228;53.222;7.446;2022-08-21T01:57:42;10.13;;;9.00;;
36185;SDS011;22228;53.222;7.446;2022-08-21T02:00:03;9.67;;;8.40;;
36185;SDS011;22228;53.222;7.446;2022-08-21T02:02:30;10.20;;;9.13;;
36185;SDS011;22228;53.222;7.446;2022-08-21T02:04:51;12.70;;;9.90;;
36185;SDS011;22228;53.222;7.446;2022-08-21T02:07:11;11.13;;;9.37;;
36185;SDS011;22228;53.222;7.446;2022-08-21T02:09:32;13.23;;;11.53;;
36185;SDS011;22228;53.222;7.446;2022-08-21T02:11:54;13.53;;;11.43;;
36185;SDS011;22228;53.222;7.446;2022-08-21T02:14:15;14.20;;;12.73;;
36185;SDS011;22228;53.222;7.446;2022-08-21T02:16:36;12.80;;;11.30;;
36185;SDS011;22228;53.222;7.446;2022-08-21T02:18:56;12.67;;;11.43;;
36185;SDS011;22228;53.222;7.446;2022-08-21T02:21:16;11.63;;;10.43;;
36185;SDS011;22228;53.222;7.446;2022-08-21T02:23:37;14.87;;;11.67;;
36185;SDS011;22228;53.222;7.446;2022-08-21T02:25:58;12.80;;;11.67;;
36185;SDS011;22228;53.222;7.446;2022-08-21T02:28:20;15.40;;;12.30;;
36185;SDS011;22228;53.222;7.446;2022-08-21T02:30:42;16.37;;;13.93;;
36185;SDS011;22228;53.222;7.446;2022-08-21T02:33:03;15.30;;;13.70;;
36185;SDS011;22228;53.222;7.446;2022-08-21T02:35:24;16.97;;;14.93;;
36185;SDS011;22228;53.222;7.446;2022-08-21T02:37:46;16.47;;;14.83;;
36185;SDS011;22228;53.222;7.446;2022-08-21T02:40:09;16.97;;;15.17;;
36185;SDS011;22228;53.222;7.446;2022-08-21T02:42:30;17.33;;;15.53;;
36185;SDS011;22228;53.222;7.446;2022-08-21T02:44:52;18.67;;;16.97;;
36185;SDS011;22228;53.222;7.446;2022-08-21T02:47:13;20.77;;;18.40;;
36185;SDS011;22228;53.222;7.446;2022-08-21T02:49:34;19.07;;;17.13;;
36185;SDS011;22228;53.222;7.446;2022-08-21T02:51:54;17.83;;;16.10;;
36185;SDS011;22228;53.222;7.446;2022-08-21T02:54:14;19.17;;;17.17;;
36185;SDS011;22228;53.222;7.446;2022-08-21T02:56:35;20.57;;;18.50;;
36185;SDS011;22228;53.222;7.446;2022-08-21T02:58:56;19.77;;;17.67;;
36185;SDS011;22228;53.222;7.446;2022-08-21T03:01:18;18.97;;;17.07;;
36185;SDS011;22228;53.222;7.446;2022-08-21T03:03:39;19.60;;;17.80;;
36185;SDS011;22228;53.222;7.446;2022-08-21T03:06:02;22.53;;;20.33;;
36185;SDS011;22228;53.222;7.446;2022-08-21T03:08:22;22.63;;;20.17;;
36185;SDS011;22228;53.222;7.446;2022-08-21T03:10:44;21.33;;;19.33;;
36185;SDS011;22228;53.222;7.446;2022-08-21T03:13:09;20.27;;;18.17;;
36185;SDS011;22228;53.222;7.446;2022-08-21T03:15:30;21.33;;;19.03;;
36185;SDS011;22228;53.222;7.446;2022-08-21T03:17:52;24.70;;;21.10;;
36185;SDS011;22228;53.222;7.446;2022-08-21T03:20:13;22.07;;;19.83;;
36185;SDS011;22228;53.222;7.446;2022-08-21T03:22:34;20.57;;;18.47;;
36185;SDS011;22228;53.222;7.446;2022-08-21T03:24:55;20.93;;;18.90;;
36185;SDS011;22228;53.222;7.446;2022-08-21T03:27:15;20.27;;;18.17;;
36185;SDS011;22228;53.222;7.446;2022-08-21T03:29:36;19.17;;;17.37;;
36185;SDS011;22228;53.222;7.446;2022-08-21T03:31:57;19.33;;;17.50;;
36185;SDS011;22228;53.222;7.446;2022-08-21T03:34:19;19.60;;;17.63;;
36185;SDS011;22228;53.222;7.446;2022-08-21T03:36:40;20.07;;;18.00;;
36185;SDS011;22228;53.222;7.446;2022-08-21T03:39:00;20.00;;;18.10;;
36185;SDS011;22228;53.222;7.446;2022-08-21T03:41:21;19.53;;;17.67;;
36185;SDS011;22228;53.222;7.446;2022-08-21T03:43:41;20.57;;;18.57;;
36185;SDS011;22228;53.222;7.446;2022-08-21T03:46:02;23.23;;;20.77;;
36185;SDS011;22228;53.222;7.446;2022-08-21T03:48:24;22.27;;;20.00;;
36185;SDS011;22228;53.222;7.446;2022-08-21T03:50:46;21.67;;;19.57;;
36185;SDS011;22228;53.222;7.446;2022-08-21T03:53:08;21.13;;;19.13;;
36185;SDS011;22228;53.222;7.446;2022-08-21T03:55:30;23.50;;;19.87;;
36185;SDS011;22228;53.222;7.446;2022-08-21T03:57:50;22.43;;;20.30;;
36185;SDS011;22228;53.222;7.446;2022-08-21T04:00:12;22.57;;;20.33;;
36185;SDS011;22228;53.222;7.446;2022-08-21T04:02:33;21.97;;;19.90;;
36185;SDS011;22228;53.222;7.446;2022-08-21T04:04:54;23.07;;;20.73;;
36185;SDS011;22228;53.222;7.446;2022-08-21T04:07:16;22.60;;;20.27;;
36185;SDS011;22228;53.222;7.446;2022-08-21T04:09:37;25.03;;;21.57;;
36185;SDS011;22228;53.222;7.446;2022-08-21T04:11:57;22.73;;;20.37;;
36185;SDS011;22228;53.222;7.446;2022-08-21T04:14:19;24.23;;;21.67;;
36185;SDS011;22228;53.222;7.446;2022-08-21T04:16:41;23.13;;;20.60;;
36185;SDS011;22228;53.222;7.446;2022-08-21T04:19:01;21.10;;;18.90;;
36185;SDS011;22228;53.222;7.446;2022-08-21T04:21:22;21.23;;;19.07;;
36185;SDS011;22228;53.222;7.446;2022-08-21T04:23:44;19.57;;;17.47;;
36185;SDS011;22228;53.222;7.446;2022-08-21T04:26:04;20.93;;;18.03;;
36185;SDS011;22228;53.222;7.446;2022-08-21T04:28:25;20.30;;;18.10;;
36185;SDS011;22228;53.222;7.446;2022-08-21T04:30:47;18.73;;;16.73;;
36185;SDS011;22228;53.222;7.446;2022-08-21T04:33:09;19.57;;;17.67;;
36185;SDS011;22228;53.222;7.446;2022-08-21T04:35:29;19.27;;;17.43;;
36185;SDS011;22228;53.222;7.446;2022-08-21T04:37:49;21.93;;;17.43;;
36185;SDS011;22228;53.222;7.446;2022-08-21T04:40:12;19.40;;;16.10;;
36185;SDS011;22228;53.222;7.446;2022-08-21T04:42:40;17.70;;;15.93;;
36185;SDS011;22228;53.222;7.446;2022-08-21T04:45:03;17.97;;;16.10;;
36185;SDS011;22228;53.222;7.446;2022-08-21T04:47:23;17.03;;;14.77;;
36185;SDS011;22228;53.222;7.446;2022-08-21T04:49:44;17.13;;;15.40;;
36185;SDS011;22228;53.222;7.446;2022-08-21T04:52:04;17.90;;;16.10;;
36185;SDS011;22228;53.222;7.446;2022-08-21T04:54:25;17.80;;;15.70;;
36185;SDS011;22228;53.222;7.446;2022-08-21T04:56:47;19.40;;;15.90;;
36185;SDS011;22228;53.222;7.446;2022-08-21T04:59:13;18.57;;;16.23;;
36185;SDS011;22228;53.222;7.446;2022-08-21T05:01:36;19.13;;;15.90;;
36185;SDS011;22228;53.222;7.446;2022-08-21T05:03:58;18.73;;;16.83;;
36185;SDS011;22228;53.222;7.446;2022-08-21T05:06:20;20.23;;;16.60;;
36185;SDS011;22228;53.222;7.446;2022-08-21T05:08:41;19.03;;;16.73;;
36185;SDS011;22228;53.222;7.446;2022-08-21T05:11:04;20.07;;;16.10;;
36185;SDS011;22228;53.222;7.446;2022-08-21T05:13:26;19.77;;;16.90;;
36185;SDS011;22228;53.222;7.446;2022-08-21T05:15:47;17.17;;;15.57;;
36185;SDS011;22228;53.222;7.446;2022-08-21T05:18:08;17.43;;;15.50;;
36185;SDS011;22228;53.222;7.446;2022-08-21T05:20:29;23.37;;;17.60;;
36185;SDS011;22228;53.222;7.446;2022-08-21T05:22:49;19.50;;;16.87;;
36185;SDS011;22228;53.222;7.446;2022-08-21T05:25:10;18.83;;;16.50;;
36185;SDS011;22228;53.222;7.446;2022-08-21T05:27:30;21.77;;;17.43;;
36185;SDS011;22228;53.222;7.446;2022-08-21T05:29:52;18.57;;;16.60;;
36185;SDS011;22228;53.222;7.446;2022-08-21T05:32:13;19.47;;;17.43;;
36185;SDS011;22228;53.222;7.446;2022-08-21T05:34:34;17.50;;;15.80;;
36185;SDS011;22228;53.222;7.446;2022-08-21T05:36:54;22.40;;;16.97;;
36185;SDS011;22228;53.222;7.446;2022-08-21T05:39:15;21.93;;;17.23;;
36185;SDS011;22228;53.222;7.446;2022-08-21T05:41:35;19.30;;;16.13;;
36185;SDS011;22228;53.222;7.446;2022-08-21T05:43:56;18.17;;;16.13;;
36185;SDS011;22228;53.222;7.446;2022-08-21T05:46:18;19.13;;;16.40;;
36185;SDS011;22228;53.222;7.446;2022-08-21T05:48:38;19.20;;;15.70;;
36185;SDS011;22228;53.222;7.446;2022-08-21T05:51:03;18.10;;;14.80;;
36185;SDS011;22228;53.222;7.446;2022-08-21T05:53:26;20.87;;;15.60;;
36185;SDS011;22228;53.222;7.446;2022-08-21T05:55:46;20.03;;;16.83;;
36185;SDS011;22228;53.222;7.446;2022-08-21T05:58:07;17.27;;;15.50;;
36185;SDS011;22228;53.222;7.446;2022-08-21T06:00:27;18.63;;;16.40;;
36185;SDS011;22228;53.222;7.446;2022-08-21T06:02:49;17.90;;;16.10;;
36185;SDS011;22228;53.222;7.446;2022-08-21T06:05:10;17.83;;;15.93;;
36185;SDS011;22228;53.222;7.446;2022-08-21T06:07:30;16.47;;;14.53;;
36185;SDS011;22228;53.222;7.446;2022-08-21T06:09:51;17.00;;;14.87;;
36185;SDS011;22228;53.222;7.446;2022-08-21T06:12:12;18.37;;;14.77;;
36185;SDS011;22228;53.222;7.446;2022-08-21T06:14:33;17.13;;;15.20;;
36185;SDS011;22228;53.222;7.446;2022-08-21T06:16:53;15.27;;;13.17;;
36185;SDS011;22228;53.222;7.446;2022-08-21T06:19:15;15.03;;;13.13;;
36185;SDS011;22228;53.222;7.446;2022-08-21T06:21:36;16.90;;;14.37;;
36185;SDS011;22228;53.222;7.446;2022-08-21T06:23:56;18.40;;;13.43;;
36185;SDS011;22228;53.222;7.446;2022-08-21T06:26:17;15.23;;;12.83;;
36185;SDS011;22228;53.222;7.446;2022-08-21T06:28:39;15.80;;;12.80;;
36185;SDS011;22228;53.222;7.446;2022-08-21T06:31:00;15.43;;;12.47;;
36185;SDS011;22228;53.222;7.446;2022-08-21T06:33:20;14.77;;;12.90;;
36185;SDS011;22228;53.222;7.446;2022-08-21T06:35:42;15.80;;;12.23;;
36185;SDS011;22228;53.222;7.446;2022-08-21T06:38:03;15.03;;;11.73;;
36185;SDS011;22228;53.222;7.446;2022-08-21T06:40:23;17.87;;;11.10;;
36185;SDS011;22228;53.222;7.446;2022-08-21T06:42:44;12.10;;;10.97;;
36185;SDS011;22228;53.222;7.446;2022-08-21T06:45:05;10.73;;;9.63;;
36185;SDS011;22228;53.222;7.446;2022-08-21T06:47:26;13.27;;;9.83;;
36185;SDS011;22228;53.222;7.446;2022-08-21T06:49:46;13.70;;;8.83;;
36185;SDS011;22228;53.222;7.446;2022-08-21T06:52:09;13.00;;;9.30;;
36185;SDS011;22228;53.222;7.446;2022-08-21T06:54:30;10.03;;;8.67;;
36185;SDS011;22228;53.222;7.446;2022-08-21T06:56:52;11.50;;;8.73;;
36185;SDS011;22228;53.222;7.446;2022-08-21T06:59:12;10.73;;;8.07;;
36185;SDS011;22228;53.222;7.446;2022-08-21T07:01:33;10.20;;;7.37;;
36185;SDS011;22228;53.222;7.446;2022-08-21T07:03:53;10.10;;;8.10;;
36185;SDS011;22228;53.222;7.446;2022-08-21T07:06:13;9.20;;;7.83;;
36185;SDS011;22228;53.222;7.446;2022-08-21T07:08:36;7.83;;;7.10;;
36185;SDS011;22228;53.222;7.446;2022-08-21T07:10:57;9.13;;;6.23;;
36185;SDS011;22228;53.222;7.446;2022-08-21T07:13:19;12.20;;;7.30;;
36185;SDS011;22228;53.222;7.446;2022-08-21T07:15:40;8.73;;;6.13;;
36185;SDS011;22228;53.222;7.446;2022-08-21T07:18:00;8.37;;;5.93;;
36185;SDS011;22228;53.222;7.446;2022-08-21T07:20:21;9.30;;;6.60;;
36185;SDS011;22228;53.222;7.446;2022-08-21T07:22:42;10.30;;;5.83;;
36185;SDS011;22228;53.222;7.446;2022-08-21T07:25:05;6.97;;;5.43;;
36185;SDS011;22228;53.222;7.446;2022-08-21T07:27:26;7.63;;;5.13;;
36185;SDS011;22228;53.222;7.446;2022-08-21T07:29:47;6.43;;;4.17;;
36185;SDS011;22228;53.222;7.446;2022-08-21T07:32:08;9.40;;;5.27;;
36185;SDS011;22228;53.222;7.446;2022-08-21T07:34:28;7.60;;;4.73;;
36185;SDS011;22228;53.222;7.446;2022-08-21T07:36:49;8.27;;;4.23;;
36185;SDS011;22228;53.222;7.446;2022-08-21T07:39:10;6.70;;;4.33;;
36185;SDS011;22228;53.222;7.446;2022-08-21T07:41:32;6.33;;;4.77;;
36185;SDS011;22228;53.222;7.446;2022-08-21T07:43:54;7.53;;;4.33;;
36185;SDS011;22228;53.222;7.446;2022-08-21T07:46:16;6.90;;;3.67;;
36185;SDS011;22228;53.222;7.446;2022-08-21T07:48:37;10.90;;;3.70;;
36185;SDS011;22228;53.222;7.446;2022-08-21T07:50:57;5.97;;;3.43;;
36185;SDS011;22228;53.222;7.446;2022-08-21T07:53:22;7.73;;;3.83;;
36185;SDS011;22228;53.222;7.446;2022-08-21T07:55:42;8.30;;;3.10;;
36185;SDS011;22228;53.222;7.446;2022-08-21T07:58:04;7.37;;;3.33;;
36185;SDS011;22228;53.222;7.446;2022-08-21T08:00:27;7.70;;;3.37;;
36185;SDS011;22228;53.222;7.446;2022-08-21T08:02:50;11.03;;;3.03;;
36185;SDS011;22228;53.222;7.446;2022-08-21T08:05:13;9.97;;;3.37;;
36185;SDS011;22228;53.222;7.446;2022-08-21T08:07:33;10.50;;;3.20;;
36185;SDS011;22228;53.222;7.446;2022-08-21T08:09:54;4.27;;;2.03;;
36185;SDS011;22228;53.222;7.446;2022-08-21T08:12:15;6.07;;;1.80;;
36185;SDS011;22228;53.222;7.446;2022-08-21T08:14:38;6.90;;;2.73;;
36185;SDS011;22228;53.222;7.446;2022-08-21T08:16:59;6.40;;;2.37;;
36185;SDS011;22228;53.222;7.446;2022-08-21T08:19:20;6.60;;;2.33;;
36185;SDS011;22228;53.222;7.446;2022-08-21T08:21:41;5.63;;;2.37;;
36185;SDS011;22228;53.222;7.446;2022-08-21T08:24:02;5.10;;;2.07;;
36185;SDS011;22228;53.222;7.446;2022-08-21T08:26:23;5.80;;;2.30;;
36185;SDS011;22228;53.222;7.446;2022-08-21T08:28:53;7.47;;;2.90;;
36185;SDS011;22228;53.222;7.446;2022-08-21T08:31:15;7.00;;;2.40;;
36185;SDS011;22228;53.222;7.446;2022-08-21T08:33:36;4.90;;;2.07;;
36185;SDS011;22228;53.222;7.446;2022-08-21T08:35:56;6.37;;;2.10;;
36185;SDS011;22228;53.222;7.446;2022-08-21T08:38:17;9.23;;;2.27;;
36185;SDS011;22228;53.222;7.446;2022-08-21T08:40:42;7.77;;;2.37;;
36185;SDS011;22228;53.222;7.446;2022-08-21T08:43:06;9.73;;;2.40;;
36185;SDS011;22228;53.222;7.446;2022-08-21T08:45:27;6.37;;;1.90;;
36185;SDS011;22228;53.222;7.446;2022-08-21T08:47:54;4.53;;;2.00;;
36185;SDS011;22228;53.222;7.446;2022-08-21T08:50:21;7.43;;;2.13;;
36185;SDS011;22228;53.222;7.446;2022-08-21T08:52:45;6.67;;;2.30;;
36185;SDS011;22228;53.222;7.446;2022-08-21T08:55:11;7.57;;;2.00;;
36185;SDS011;22228;53.222;7.446;2022-08-21T08:57:35;7.37;;;2.03;;
36185;SDS011;22228;53.222;7.446;2022-08-21T08:59:58;5.37;;;2.03;;
36185;SDS011;22228;53.222;7.446;2022-08-21T09:02:21;6.10;;;2.33;;
36185;SDS011;22228;53.222;7.446;2022-08-21T09:04:45;4.20;;;1.70;;
36185;SDS011;22228;53.222;7.446;2022-08-21T09:07:09;4.50;;;1.50;;
36185;SDS011;22228;53.222;7.446;2022-08-21T09:09:39;5.60;;;1.83;;
36185;SDS011;22228;53.222;7.446;2022-08-21T09:12:08;6.60;;;1.80;;
36185;SDS011;22228;53.222;7.446;2022-08-21T09:14:41;7.67;;;1.70;;
36185;SDS011;22228;53.222;7.446;2022-08-21T09:17:12;5.80;;;1.70;;
36185;SDS011;22228;53.222;7.446;2022-08-21T09:19:45;6.17;;;1.50;;
36185;SDS011;22228;53.222;7.446;2022-08-21T09:22:17;4.40;;;1.77;;
36185;SDS011;22228;53.222;7.446;2022-08-21T09:24:46;5.27;;;1.63;;
36185;SDS011;22228;53.222;7.446;2022-08-21T09:27:15;3.73;;;1.30;;
36185;SDS011;22228;53.222;7.446;2022-08-21T09:29:37;5.00;;;1.60;;
36185;SDS011;22228;53.222;7.446;2022-08-21T09:32:00;3.30;;;1.27;;
36185;SDS011;22228;53.222;7.446;2022-08-21T09:34:24;4.63;;;1.40;;
36185;SDS011;22228;53.222;7.446;2022-08-21T09:36:47;4.27;;;1.30;;
36185;SDS011;22228;53.222;7.446;2022-08-21T09:39:11;3.90;;;1.40;;
36185;SDS011;22228;53.222;7.446;2022-08-21T09:41:34;5.40;;;1.30;;
36185;SDS011;22228;53.222;7.446;2022-08-21T09:43:55;4.30;;;1.40;;
36185;SDS011;22228;53.222;7.446;2022-08-21T09:46:19;6.03;;;1.63;;
36185;SDS011;22228;53.222;7.446;2022-08-21T09:48:42;3.47;;;1.23;;
36185;SDS011;22228;53.222;7.446;2022-08-21T09:51:05;5.87;;;1.40;;
36185;SDS011;22228;53.222;7.446;2022-08-21T09:53:28;3.67;;;1.10;;
36185;SDS011;22228;53.222;7.446;2022-08-21T09:55:51;4.40;;;1.20;;
36185;SDS011;22228;53.222;7.446;2022-08-21T09:58:31;6.73;;;1.40;;
36185;SDS011;22228;53.222;7.446;2022-08-21T10:00:57;5.50;;;1.30;;
36185;SDS011;22228;53.222;7.446;2022-08-21T10:03:20;4.70;;;1.27;;
36185;SDS011;22228;53.222;7.446;2022-08-21T10:05:50;2.77;;;1.13;;
36185;SDS011;22228;53.222;7.446;2022-08-21T10:08:16;4.07;;;1.10;;
36185;SDS011;22228;53.222;7.446;2022-08-21T10:10:39;3.93;;;1.50;;
36185;SDS011;22228;53.222;7.446;2022-08-21T10:13:01;4.70;;;1.03;;
36185;SDS011;22228;53.222;7.446;2022-08-21T10:15:27;7.03;;;1.40;;
36185;SDS011;22228;53.222;7.446;2022-08-21T10:18:01;3.27;;;1.00;;
36185;SDS011;22228;53.222;7.446;2022-08-21T10:20:34;3.60;;;1.10;;
36185;SDS011;22228;53.222;7.446;2022-08-21T10:23:02;12.57;;;11.23;;
36185;SDS011;22228;53.222;7.446;2022-08-21T10:25:35;2.70;;;1.10;;
36185;SDS011;22228;53.222;7.446;2022-08-21T10:28:03;5.20;;;1.63;;
36185;SDS011;22228;53.222;7.446;2022-08-21T10:30:32;5.30;;;1.20;;
36185;SDS011;22228;53.222;7.446;2022-08-21T10:33:32;2.40;;;1.10;;
36185;SDS011;22228;53.222;7.446;2022-08-21T10:36:02;5.73;;;1.40;;
36185;SDS011;22228;53.222;7.446;2022-08-21T10:38:41;4.03;;;0.80;;
36185;SDS011;22228;53.222;7.446;2022-08-21T10:41:22;4.20;;;1.00;;
36185;SDS011;22228;53.222;7.446;2022-08-21T10:43:52;3.40;;;1.00;;
36185;SDS011;22228;53.222;7.446;2022-08-21T10:46:28;2.50;;;0.80;;
36185;SDS011;22228;53.222;7.446;2022-08-21T10:48:59;2.80;;;0.90;;
36185;SDS011;22228;53.222;7.446;2022-08-21T10:51:28;2.63;;;0.70;;
36185;SDS011;22228;53.222;7.446;2022-08-21T10:53:57;3.70;;;1.00;;
36185;SDS011;22228;53.222;7.446;2022-08-21T10:56:24;2.03;;;0.80;;
36185;SDS011;22228;53.222;7.446;2022-08-21T10:58:49;3.27;;;0.90;;
36185;SDS011;22228;53.222;7.446;2022-08-21T11:01:22;2.73;;;1.10;;
36185;SDS011;22228;53.222;7.446;2022-08-21T11:03:49;3.87;;;1.07;;
36185;SDS011;22228;53.222;7.446;2022-08-21T11:06:14;4.50;;;0.90;;
36185;SDS011;22228;53.222;7.446;2022-08-21T11:08:40;1.63;;;0.80;;
36185;SDS011;22228;53.222;7.446;2022-08-21T11:11:04;7.47;;;1.00;;
36185;SDS011;22228;53.222;7.446;2022-08-21T11:13:31;3.73;;;1.00;;
36185;SDS011;22228;53.222;7.446;2022-08-21T11:16:00;3.70;;;1.37;;
36185;SDS011;22228;53.222;7.446;2022-08-21T11:18:27;2.13;;;0.90;;
36185;SDS011;22228;53.222;7.446;2022-08-21T11:20:55;2.17;;;0.80;;
36185;SDS011;22228;53.222;7.446;2022-08-21T11:23:21;2.53;;;0.97;;
36185;SDS011;22228;53.222;7.446;2022-08-21T11:25:47;2.00;;;0.83;;
36185;SDS011;22228;53.222;7.446;2022-08-21T11:28:13;4.57;;;1.20;;
36185;SDS011;22228;53.222;7.446;2022-08-21T11:30:41;2.50;;;1.03;;
36185;SDS011;22228;53.222;7.446;2022-08-21T11:33:14;1.77;;;0.80;;
36185;SDS011;22228;53.222;7.446;2022-08-21T11:35:47;4.20;;;1.80;;
36185;SDS011;22228;53.222;7.446;2022-08-21T11:38:15;2.30;;;0.67;;
36185;SDS011;22228;53.222;7.446;2022-08-21T11:40:48;2.07;;;1.10;;
36185;SDS011;22228;53.222;7.446;2022-08-21T11:43:17;2.17;;;0.80;;
36185;SDS011;22228;53.222;7.446;2022-08-21T11:45:51;1.90;;;0.90;;
36185;SDS011;22228;53.222;7.446;2022-08-21T11:48:14;2.00;;;0.80;;
36185;SDS011;22228;53.222;7.446;2022-08-21T11:50:45;2.03;;;0.80;;
36185;SDS011;22228;53.222;7.446;2022-08-21T11:53:09;3.33;;;1.10;;
36185;SDS011;22228;53.222;7.446;2022-08-21T11:55:33;3.03;;;0.80;;
36185;SDS011;22228;53.222;7.446;2022-08-21T11:57:59;2.87;;;0.90;;
36185;SDS011;22228;53.222;7.446;2022-08-21T12:00:25;2.40;;;1.17;;
36185;SDS011;22228;53.222;7.446;2022-08-21T12:02:52;6.20;;;1.20;;
36185;SDS011;22228;53.222;7.446;2022-08-21T12:05:22;5.27;;;1.10;;
36185;SDS011;22228;53.222;7.446;2022-08-21T12:07:46;24.93;;;2.50;;
36185;SDS011;22228;53.222;7.446;2022-08-21T12:10:08;6.00;;;1.00;;
36185;SDS011;22228;53.222;7.446;2022-08-21T12:12:32;2.43;;;0.80;;
36185;SDS011;22228;53.222;7.446;2022-08-21T12:15:04;3.07;;;0.90;;
36185;SDS011;22228;53.222;7.446;2022-08-21T12:17:35;1.80;;;0.70;;
36185;SDS011;22228;53.222;7.446;2022-08-21T12:19:58;9.70;;;1.03;;
36185;SDS011;22228;53.222;7.446;2022-08-21T12:22:36;1.57;;;0.60;;
36185;SDS011;22228;53.222;7.446;2022-08-21T12:25:03;0.80;;;0.53;;
36185;SDS011;22228;53.222;7.446;2022-08-21T12:27:26;1.20;;;0.60;;
36185;SDS011;22228;53.222;7.446;2022-08-21T12:29:49;1.23;;;0.70;;
36185;SDS011;22228;53.222;7.446;2022-08-21T12:32:20;2.80;;;0.63;;
36185;SDS011;22228;53.222;7.446;2022-08-21T12:34:44;1.27;;;0.53;;
36185;SDS011;22228;53.222;7.446;2022-08-21T12:37:14;2.53;;;0.60;;
36185;SDS011;22228;53.222;7.446;2022-08-21T12:39:39;3.13;;;0.70;;
36185;SDS011;22228;53.222;7.446;2022-08-21T12:42:07;1.70;;;0.80;;
36185;SDS011;22228;53.222;7.446;2022-08-21T12:44:37;2.40;;;0.77;;
36185;SDS011;22228;53.222;7.446;2022-08-21T12:47:02;2.50;;;0.67;;
36185;SDS011;22228;53.222;7.446;2022-08-21T12:49:26;1.73;;;0.80;;
36185;SDS011;22228;53.222;7.446;2022-08-21T12:51:54;1.90;;;0.50;;
36185;SDS011;22228;53.222;7.446;2022-08-21T12:54:26;2.90;;;0.80;;
36185;SDS011;22228;53.222;7.446;2022-08-21T12:56:55;1.40;;;0.67;;
36185;SDS011;22228;53.222;7.446;2022-08-21T12:59:16;2.27;;;0.90;;
36185;SDS011;22228;53.222;7.446;2022-08-21T13:01:46;1.13;;;0.70;;
36185;SDS011;22228;53.222;7.446;2022-08-21T13:04:10;1.93;;;0.73;;
36185;SDS011;22228;53.222;7.446;2022-08-21T13:06:36;3.67;;;0.90;;
36185;SDS011;22228;53.222;7.446;2022-08-21T13:09:03;5.07;;;0.80;;
36185;SDS011;22228;53.222;7.446;2022-08-21T13:11:27;1.83;;;0.80;;
36185;SDS011;22228;53.222;7.446;2022-08-21T13:13:48;2.20;;;0.73;;
36185;SDS011;22228;53.222;7.446;2022-08-21T13:16:10;4.90;;;1.10;;
36185;SDS011;22228;53.222;7.446;2022-08-21T13:18:32;1.70;;;0.80;;
36185;SDS011;22228;53.222;7.446;2022-08-21T13:21:02;3.20;;;0.90;;
36185;SDS011;22228;53.222;7.446;2022-08-21T13:23:25;3.13;;;1.00;;
36185;SDS011;22228;53.222;7.446;2022-08-21T13:25:48;2.37;;;0.90;;
36185;SDS011;22228;53.222;7.446;2022-08-21T13:28:10;1.20;;;0.63;;
36185;SDS011;22228;53.222;7.446;2022-08-21T13:30:33;2.17;;;0.80;;
36185;SDS011;22228;53.222;7.446;2022-08-21T13:32:55;3.00;;;0.80;;
36185;SDS011;22228;53.222;7.446;2022-08-21T13:35:18;2.13;;;0.90;;
36185;SDS011;22228;53.222;7.446;2022-08-21T13:37:42;2.83;;;0.70;;
36185;SDS011;22228;53.222;7.446;2022-08-21T13:40:06;3.13;;;0.80;;
36185;SDS011;22228;53.222;7.446;2022-08-21T13:42:29;3.23;;;1.00;;
36185;SDS011;22228;53.222;7.446;2022-08-21T13:44:51;1.50;;;0.80;;
36185;SDS011;22228;53.222;7.446;2022-08-21T13:47:14;3.37;;;0.80;;
36185;SDS011;22228;53.222;7.446;2022-08-21T13:49:37;1.87;;;0.80;;
36185;SDS011;22228;53.222;7.446;2022-08-21T13:51:59;2.33;;;0.70;;
36185;SDS011;22228;53.222;7.446;2022-08-21T13:54:21;2.80;;;0.80;;
36185;SDS011;22228;53.222;7.446;2022-08-21T13:56:45;4.53;;;1.00;;
36185;SDS011;22228;53.222;7.446;2022-08-21T13:59:06;4.00;;;0.87;;
36185;SDS011;22228;53.222;7.446;2022-08-21T14:01:28;2.33;;;0.70;;
36185;SDS011;22228;53.222;7.446;2022-08-21T14:03:53;2.20;;;0.90;;
36185;SDS011;22228;53.222;7.446;2022-08-21T14:06:17;3.00;;;0.80;;
36185;SDS011;22228;53.222;7.446;2022-08-21T14:08:39;2.43;;;0.90;;
36185;SDS011;22228;53.222;7.446;2022-08-21T14:11:02;2.37;;;0.70;;
36185;SDS011;22228;53.222;7.446;2022-08-21T14:13:29;5.57;;;0.90;;
36185;SDS011;22228;53.222;7.446;2022-08-21T14:15:56;3.83;;;1.00;;